Terminal Aerodrome Forecast
Issued by NWS Duluth, MN

Home | Current Version | Previous Version | Text Only | Print | Product List | Glossary On
Versions: 1 2 3 4 5 6 7 8 9 10 11 12 13 14 15 16 17 18
000
FTUS43 KDLH 292300
TAFINL
TAF
KINL 292320Z 3000/3024 28008KT P6SM VCTS SCT050CB BKN080
      TEMPO 3000/3001 3SM -TSRA BR BKN040CB
     FM300200 31004KT P6SM SCT060
     FM301100 27003KT 5SM BR SCT080
     FM301600 32008KT P6SM SCT050
     FM302000 33010KT P6SM SCT040=

USA.gov is the U.S. government's official web portal to all federal, state and local government web resources and services.